createdAt,value
2018-06-05T00:01:35.290Z,49.07
2018-06-05T00:04:03.396Z,50.20
2018-06-05T00:06:31.442Z,46.60
2018-06-05T00:08:59.725Z,49.53
2018-06-05T00:11:28.001Z,48.97
2018-06-05T00:13:56.059Z,50.90
2018-06-05T00:16:25.159Z,51.37
2018-06-05T00:18:53.216Z,52.57
2018-06-05T00:21:21.477Z,51.53
2018-06-05T00:23:49.378Z,46.30
2018-06-05T00:26:17.617Z,46.50
2018-06-05T00:28:46.131Z,47.10
2018-06-05T00:31:15.800Z,44.40
2018-06-05T00:33:44.095Z,42.70
2018-06-05T00:36:12.623Z,43.27
2018-06-05T00:38:40.767Z,41.00
2018-06-05T00:41:08.941Z,41.30
2018-06-05T00:43:37.008Z,37.00
2018-06-05T00:46:05.274Z,36.83
2018-06-05T00:48:33.183Z,36.33
2018-06-05T00:51:08.466Z,37.83
2018-06-05T00:53:36.458Z,33.93
2018-06-05T00:56:04.696Z,30.77
2018-06-05T00:58:34.223Z,33.17
2018-06-05T01:01:02.439Z,33.23
2018-06-05T01:03:30.571Z,32.20
2018-06-05T01:05:58.411Z,31.93
2018-06-05T01:08:26.314Z,31.83
2018-06-05T01:10:54.583Z,33.70
2018-06-05T01:13:23.064Z,33.70
2018-06-05T01:15:50.981Z,34.27
2018-06-05T01:18:19.004Z,33.37
2018-06-05T01:20:47.266Z,37.20
2018-06-05T01:23:15.961Z,38.27
2018-06-05T01:25:44.029Z,43.73
2018-06-05T01:28:12.310Z,44.03
2018-06-05T01:30:40.756Z,43.73
2018-06-05T01:33:08.840Z,41.87
2018-06-05T01:35:36.911Z,38.93
2018-06-05T01:38:05.420Z,38.93
2018-06-05T01:40:33.673Z,36.83
2018-06-05T01:43:01.757Z,36.37
2018-06-05T01:45:30.222Z,36.03
2018-06-05T01:47:58.165Z,35.97
2018-06-05T01:50:27.471Z,36.70
2018-06-05T01:52:55.452Z,34.63
2018-06-05T01:55:23.736Z,35.53
2018-06-05T01:57:51.990Z,33.47
2018-06-05T02:00:20.287Z,33.40
2018-06-05T02:02:48.608Z,32.30
2018-06-05T02:05:18.056Z,31.70
2018-06-05T02:07:46.345Z,32.60
2018-06-05T02:10:14.407Z,31.97
2018-06-05T02:12:42.677Z,32.10
2018-06-05T02:15:10.762Z,29.97
2018-06-05T02:17:38.856Z,32.93
2018-06-05T02:20:06.897Z,30.47
2018-06-05T02:22:35.362Z,33.40
2018-06-05T02:25:03.274Z,33.37
2018-06-05T02:27:31.300Z,34.77
2018-06-05T02:29:59.576Z,34.67
2018-06-05T02:32:27.881Z,37.20
2018-06-05T02:34:55.950Z,39.43
2018-06-05T02:37:24.186Z,36.00
2018-06-05T02:39:52.300Z,43.50
2018-06-05T02:42:20.189Z,45.03
2018-06-05T02:44:48.189Z,45.43
2018-06-05T02:47:16.500Z,49.50
2018-06-05T02:49:44.768Z,43.97
2018-06-05T02:52:12.692Z,42.97
2018-06-05T02:54:42.026Z,45.57
2018-06-05T02:57:10.195Z,46.50
2018-06-05T02:59:38.203Z,44.90
2018-06-05T03:02:06.537Z,40.90
2018-06-05T03:04:34.640Z,40.73
2018-06-05T03:07:03.093Z,40.50
2018-06-05T03:09:31.411Z,42.20
2018-06-05T03:11:59.356Z,38.73
2018-06-05T03:14:27.744Z,40.43
2018-06-05T03:16:56.012Z,38.50
2018-06-05T03:19:24.347Z,38.53
2018-06-05T03:21:52.327Z,37.30
2018-06-05T03:24:20.275Z,38.33
2018-06-05T03:26:48.295Z,36.20
2018-06-05T03:29:16.388Z,37.03
2018-06-05T03:31:44.305Z,36.13
2018-06-05T03:34:12.301Z,36.80
2018-06-05T03:36:40.216Z,36.13
2018-06-05T03:39:08.334Z,38.43
2018-06-05T03:41:36.609Z,36.20
2018-06-05T03:44:04.563Z,35.07
2018-06-05T03:46:32.807Z,35.30
2018-06-05T03:49:04.643Z,33.60
2018-06-05T03:51:32.594Z,34.60
2018-06-05T03:54:00.528Z,36.33
2018-06-05T03:56:28.460Z,35.13
2018-06-05T03:58:56.482Z,35.27
2018-06-05T04:01:24.736Z,32.17
2018-06-05T04:03:52.810Z,34.70
2018-06-05T04:06:20.767Z,33.73
2018-06-05T04:08:48.765Z,35.13
2018-06-05T04:11:16.816Z,32.77
2018-06-05T04:13:44.932Z,33.17
2018-06-05T04:16:12.848Z,32.17
2018-06-05T04:18:41.259Z,33.53
2018-06-05T04:21:09.567Z,32.83
2018-06-05T04:23:37.609Z,31.53
2018-06-05T04:26:05.858Z,33.47
2018-06-05T04:28:34.963Z,34.27
2018-06-05T04:31:03.063Z,35.13
2018-06-05T04:33:31.516Z,33.60
2018-06-05T04:35:59.457Z,34.50
2018-06-05T04:38:28.084Z,32.23
2018-06-05T04:40:56.353Z,32.87
2018-06-05T04:43:24.504Z,34.30
2018-06-05T04:45:53.086Z,30.50
2018-06-05T04:48:21.374Z,28.10
2018-06-05T04:50:49.259Z,32.10
2018-06-05T04:53:17.422Z,30.70
2018-06-05T04:55:45.330Z,31.43
2018-06-05T04:58:13.239Z,31.40
2018-06-05T05:00:41.178Z,28.93
2018-06-05T05:03:09.568Z,29.10
2018-06-05T05:05:37.496Z,31.50
2018-06-05T05:08:05.657Z,27.67
2018-06-05T05:10:33.992Z,28.63
2018-06-05T05:13:02.304Z,30.00
2018-06-05T05:15:30.358Z,26.80
2018-06-05T05:17:58.627Z,26.33
2018-06-05T05:20:26.905Z,27.23
2018-06-05T05:22:55.074Z,27.03
2018-06-05T05:25:23.146Z,28.90
2018-06-05T05:27:51.214Z,29.13
2018-06-05T05:30:19.079Z,27.60
2018-06-05T05:32:47.459Z,28.70
2018-06-05T05:35:15.377Z,28.27
2018-06-05T05:37:43.387Z,29.50
2018-06-05T05:40:11.357Z,27.27
2018-06-05T05:42:39.489Z,30.77
2018-06-05T05:45:07.827Z,30.77
2018-06-05T05:47:35.904Z,29.27
2018-06-05T05:50:04.030Z,28.30
2018-06-05T05:52:32.440Z,28.13
2018-06-05T05:55:00.733Z,31.10
2018-06-05T05:57:28.774Z,28.53
2018-06-05T05:59:57.052Z,31.13
2018-06-05T06:02:25.153Z,30.80
2018-06-05T06:04:53.225Z,29.30
2018-06-05T06:07:21.273Z,31.13
2018-06-05T06:09:50.654Z,29.03
2018-06-05T06:12:19.268Z,28.47
2018-06-05T06:14:47.571Z,26.83
2018-06-05T06:17:15.867Z,25.90
2018-06-05T06:19:43.742Z,23.90
2018-06-05T06:22:11.760Z,24.13
2018-06-05T06:24:40.045Z,25.23
2018-06-05T06:27:08.113Z,25.57
2018-06-05T06:29:36.371Z,26.20
2018-06-05T06:32:04.470Z,26.37
2018-06-05T06:34:32.931Z,25.33
2018-06-05T06:37:02.216Z,26.50
2018-06-05T06:39:30.516Z,25.83
2018-06-05T06:41:58.582Z,23.40
2018-06-05T06:44:26.827Z,22.07
2018-06-05T06:46:54.922Z,25.70
2018-06-05T06:49:22.988Z,24.57
2018-06-05T06:51:51.067Z,26.60
2018-06-05T06:54:19.121Z,26.67
2018-06-05T06:56:47.198Z,26.87
2018-06-05T06:59:15.460Z,24.80
2018-06-05T07:01:43.741Z,26.43
2018-06-05T07:04:11.820Z,25.27
2018-06-05T07:06:40.065Z,26.27
2018-06-05T07:09:08.378Z,30.17
2018-06-05T07:11:37.420Z,35.38
2018-06-05T07:14:05.575Z,30.27
2018-06-05T07:16:33.492Z,30.63
2018-06-05T07:19:01.695Z,32.03
2018-06-05T07:21:29.756Z,37.67
2018-06-05T07:23:57.825Z,32.00
2018-06-05T07:26:26.103Z,30.23
2018-06-05T07:28:53.972Z,28.60
2018-06-05T07:31:21.984Z,29.90
2018-06-05T07:33:49.902Z,27.60
2018-06-05T07:36:17.945Z,24.77
2018-06-05T07:38:46.269Z,25.50
2018-06-05T07:41:14.256Z,23.50
2018-06-05T07:43:42.175Z,23.07
2018-06-05T07:46:10.285Z,32.90
2018-06-05T07:48:38.311Z,24.87
2018-06-05T07:51:06.331Z,27.73
2018-06-05T07:53:34.091Z,27.43
2018-06-05T07:56:02.321Z,29.03
2018-06-05T07:58:30.205Z,27.90
2018-06-05T08:00:58.282Z,27.77
2018-06-05T08:03:26.167Z,28.30
2018-06-05T08:05:54.464Z,28.00
2018-06-05T08:08:22.598Z,26.23
2018-06-05T08:10:50.599Z,25.30
2018-06-05T08:13:19.893Z,25.77
2018-06-05T08:15:48.521Z,25.73
2018-06-05T08:18:16.678Z,25.87
2018-06-05T08:20:48.754Z,26.73
2018-06-05T08:23:17.055Z,22.93
2018-06-05T08:25:46.096Z,24.30
2018-06-05T08:28:14.202Z,24.73
2018-06-05T08:30:42.488Z,21.77
2018-06-05T08:33:10.745Z,25.03
2018-06-05T08:35:38.945Z,25.57
2018-06-05T08:38:07.124Z,24.53
2018-06-05T08:40:35.213Z,24.80
2018-06-05T08:43:03.226Z,25.17
2018-06-05T08:45:31.273Z,26.70
2018-06-05T08:47:59.173Z,26.63
2018-06-05T08:50:27.437Z,25.53
2018-06-05T08:52:55.522Z,25.83
2018-06-05T08:55:24.868Z,23.83
2018-06-05T08:57:52.901Z,26.73
2018-06-05T09:00:20.915Z,33.30
2018-06-05T09:02:49.141Z,22.13
2018-06-05T09:05:17.404Z,23.80
2018-06-05T09:07:45.366Z,24.77
2018-06-05T09:10:14.138Z,22.70
2018-06-05T09:12:42.396Z,22.60
2018-06-05T09:15:10.399Z,23.40
2018-06-05T09:17:38.284Z,21.87
2018-06-05T09:20:06.999Z,22.50
2018-06-05T09:22:34.968Z,23.63
2018-06-05T09:25:04.700Z,23.33
2018-06-05T09:27:32.622Z,22.20
2018-06-05T09:30:00.884Z,23.33
2018-06-05T09:32:28.819Z,23.27
2018-06-05T09:34:57.237Z,24.63
2018-06-05T09:37:25.281Z,25.03
2018-06-05T09:39:53.225Z,23.43
2018-06-05T09:42:21.496Z,23.63
2018-06-05T09:44:49.712Z,22.83
2018-06-05T09:47:17.783Z,22.00
2018-06-05T09:49:45.898Z,22.80
2018-06-05T09:52:14.130Z,23.17
2018-06-05T09:54:42.415Z,22.00
2018-06-05T09:57:10.767Z,24.17
2018-06-05T09:59:38.799Z,22.27
2018-06-05T10:02:07.081Z,20.23
2018-06-05T10:04:35.222Z,22.00
2018-06-05T10:07:03.018Z,23.07
2018-06-05T10:09:31.011Z,22.20
2018-06-05T10:11:59.099Z,23.10
2018-06-05T10:14:28.392Z,22.87
2018-06-05T10:16:56.526Z,23.50
2018-06-05T10:19:24.745Z,23.70
2018-06-05T10:21:53.465Z,25.60
2018-06-05T10:24:21.809Z,25.47
2018-06-05T10:26:49.799Z,26.77
2018-06-05T10:29:18.246Z,27.97
2018-06-05T10:31:46.340Z,26.30
2018-06-05T10:34:14.749Z,28.83
2018-06-05T10:36:42.688Z,24.83
2018-06-05T10:39:16.884Z,27.13
2018-06-05T10:41:44.973Z,27.50
2018-06-05T10:44:13.029Z,28.30
2018-06-05T10:46:40.985Z,28.30
2018-06-05T10:49:09.090Z,28.37
2018-06-05T10:51:37.002Z,26.90
2018-06-05T10:54:05.142Z,23.83
2018-06-05T10:56:33.163Z,28.23
2018-06-05T10:59:01.231Z,29.60
2018-06-05T11:01:29.318Z,27.17
2018-06-05T11:03:57.580Z,29.17
2018-06-05T11:06:25.865Z,27.73
2018-06-05T11:08:54.173Z,27.77
2018-06-05T11:11:22.427Z,29.43
2018-06-05T11:13:50.702Z,29.20
2018-06-05T11:16:18.602Z,29.13
2018-06-05T11:18:46.748Z,27.57
2018-06-05T11:21:15.105Z,30.33
2018-06-05T11:23:43.402Z,30.83
2018-06-05T11:26:11.881Z,31.63
2018-06-05T11:28:42.210Z,31.90
2018-06-05T11:31:10.489Z,31.27
2018-06-05T11:33:38.757Z,32.30
2018-06-05T11:36:07.054Z,29.87
2018-06-05T11:38:36.411Z,31.30
2018-06-05T11:41:04.677Z,30.43
2018-06-05T11:43:34.693Z,29.00
2018-06-05T11:46:02.632Z,29.87
2018-06-05T11:48:30.811Z,26.77
2018-06-05T11:50:58.776Z,29.03
2018-06-05T11:53:27.263Z,26.77
2018-06-05T11:55:55.273Z,29.40
2018-06-05T11:58:23.253Z,29.27
2018-06-05T12:00:51.254Z,26.53
2018-06-05T12:03:19.722Z,28.50
2018-06-05T12:05:47.747Z,27.10
2018-06-05T12:08:15.869Z,26.57
2018-06-05T12:10:43.931Z,29.87
2018-06-05T12:13:12.964Z,27.87
2018-06-05T12:15:41.270Z,27.47
2018-06-05T12:18:09.351Z,27.60
2018-06-05T12:20:37.259Z,27.50
2018-06-05T12:23:05.510Z,27.93
2018-06-05T12:25:33.904Z,26.50
2018-06-05T12:28:02.306Z,27.63
2018-06-05T12:30:30.811Z,24.90
2018-06-05T12:32:59.267Z,25.33
2018-06-05T12:35:27.522Z,27.53
2018-06-05T12:37:55.977Z,26.63
2018-06-05T12:40:24.263Z,27.47
2018-06-05T12:42:52.723Z,25.93
2018-06-05T12:45:21.079Z,23.80
2018-06-05T12:47:49.253Z,22.80
2018-06-05T12:50:17.345Z,23.67
2018-06-05T12:52:45.623Z,23.83
2018-06-05T12:55:13.706Z,23.77
2018-06-05T12:57:41.795Z,22.67
2018-06-05T13:00:09.824Z,23.77
2018-06-05T13:02:38.140Z,23.70
2018-06-05T13:05:06.210Z,22.60
2018-06-05T13:07:34.705Z,24.70
2018-06-05T13:10:02.950Z,23.17
2018-06-05T13:12:31.455Z,24.13
2018-06-05T13:14:59.694Z,23.20
2018-06-05T13:17:27.816Z,22.20
2018-06-05T13:19:55.877Z,23.40
2018-06-05T13:22:24.329Z,22.97
2018-06-05T13:24:52.390Z,24.17
2018-06-05T13:27:20.460Z,22.53
2018-06-05T13:29:48.349Z,24.20
2018-06-05T13:32:16.613Z,24.20
2018-06-05T13:34:44.547Z,21.57
2018-06-05T13:37:12.786Z,24.00
2018-06-05T13:39:40.696Z,23.20
2018-06-05T13:42:09.063Z,21.23
2018-06-05T13:44:37.369Z,22.40
2018-06-05T13:47:05.475Z,18.60
2018-06-05T13:49:33.488Z,21.83
2018-06-05T13:52:01.791Z,22.40
2018-06-05T13:54:30.111Z,22.60
2018-06-05T13:56:58.341Z,21.03
2018-06-05T13:59:26.417Z,23.10
2018-06-05T14:01:54.614Z,20.90
2018-06-05T14:04:22.950Z,24.97
2018-06-05T14:06:51.445Z,22.47
2018-06-05T14:09:19.787Z,19.50
2018-06-05T14:11:47.999Z,18.53
2018-06-05T14:14:16.038Z,21.40
2018-06-05T14:16:44.012Z,18.87
2018-06-05T14:19:12.023Z,14.60
2018-06-05T14:21:41.435Z,11.70
2018-06-05T14:24:09.396Z,13.53
2018-06-05T14:26:38.745Z,14.90
2018-06-05T14:29:07.227Z,17.83
2018-06-05T14:31:35.485Z,18.27
2018-06-05T14:34:04.196Z,16.90
2018-06-05T14:36:32.281Z,16.90
2018-06-05T14:39:00.365Z,17.17
2018-06-05T14:41:28.379Z,16.97
2018-06-05T14:43:56.696Z,16.57
2018-06-05T14:46:25.004Z,16.93
2018-06-05T14:48:53.261Z,16.30
2018-06-05T14:51:21.339Z,16.83
2018-06-05T14:53:49.257Z,17.40
2018-06-05T14:56:17.280Z,15.37
2018-06-05T14:58:45.352Z,15.17
2018-06-05T15:01:13.602Z,15.17
2018-06-05T15:03:41.499Z,17.13
2018-06-05T15:06:09.940Z,14.83
2018-06-05T15:08:38.206Z,14.23
2018-06-05T15:11:07.102Z,16.67
2018-06-05T15:13:35.150Z,14.00
2018-06-05T15:16:04.376Z,13.93
2018-06-05T15:18:32.438Z,11.67
2018-06-05T15:21:00.574Z,13.50
2018-06-05T15:23:28.947Z,13.20
2018-06-05T15:25:58.017Z,13.93
2018-06-05T15:28:25.881Z,12.00
2018-06-05T15:30:55.147Z,13.43
2018-06-05T15:33:23.311Z,13.60
2018-06-05T15:35:53.527Z,14.07
2018-06-05T15:38:21.437Z,13.13
2018-06-05T15:40:49.718Z,14.77
2018-06-05T15:43:17.753Z,14.53
2018-06-05T15:45:45.945Z,14.70
2018-06-05T15:48:14.105Z,14.40
2018-06-05T15:50:42.491Z,14.00
2018-06-05T15:53:10.489Z,12.33
2018-06-05T15:55:38.705Z,13.33
2018-06-05T15:58:06.743Z,13.67
2018-06-05T16:00:34.852Z,12.87
2018-06-05T16:03:03.065Z,10.90
2018-06-05T16:05:31.239Z,13.47
2018-06-05T16:07:59.543Z,12.43
2018-06-05T16:10:31.438Z,11.77
2018-06-05T16:13:00.115Z,11.57
2018-06-05T16:15:33.553Z,12.13
2018-06-05T16:18:01.836Z,14.63
2018-06-05T16:20:30.104Z,13.53
2018-06-05T16:22:58.011Z,13.60
2018-06-05T16:25:26.389Z,13.40
2018-06-05T16:27:54.499Z,13.13
2018-06-05T16:30:22.668Z,13.23
2018-06-05T16:32:51.688Z,12.70
2018-06-05T16:35:19.922Z,11.40
2018-06-05T16:37:48.183Z,12.17
2018-06-05T16:40:16.270Z,12.07
2018-06-05T16:42:44.210Z,12.93
2018-06-05T16:45:13.474Z,11.47
2018-06-05T16:47:41.455Z,13.63
2018-06-05T16:50:09.385Z,10.97
2018-06-05T16:52:37.419Z,12.50
2018-06-05T16:55:07.994Z,12.20
2018-06-05T16:57:36.153Z,12.23
2018-06-05T17:00:04.651Z,14.37
2018-06-05T17:02:32.994Z,9.70
2018-06-05T17:05:01.106Z,10.03
2018-06-05T17:07:30.007Z,12.40
2018-06-05T17:09:58.346Z,10.83
2018-06-05T17:12:26.406Z,13.80
2018-06-05T17:14:54.713Z,13.23
2018-06-05T17:17:23.185Z,13.37
2018-06-05T17:19:51.480Z,13.27
2018-06-05T17:22:19.490Z,11.57
2018-06-05T17:24:47.781Z,10.17
2018-06-05T17:27:16.686Z,12.73
2018-06-05T17:29:44.966Z,12.77
2018-06-05T17:32:13.415Z,12.90
2018-06-05T17:34:41.477Z,12.50
2018-06-05T17:37:09.469Z,14.73
2018-06-05T17:39:38.811Z,10.00
2018-06-05T17:42:07.445Z,14.80
2018-06-05T17:44:35.778Z,14.63
2018-06-05T17:47:03.782Z,11.70
2018-06-05T17:49:31.886Z,13.30
2018-06-05T17:52:00.157Z,13.13
2018-06-05T17:54:28.437Z,14.00
2018-06-05T17:56:59.384Z,12.80
2018-06-05T17:59:28.673Z,12.50
2018-06-05T18:01:56.916Z,14.10
2018-06-05T18:04:25.253Z,11.70
2018-06-05T18:06:53.524Z,13.00
2018-06-05T18:09:21.513Z,13.87
2018-06-05T18:11:49.647Z,13.37
2018-06-05T18:14:18.711Z,13.03
2018-06-05T18:16:46.615Z,13.40
2018-06-05T18:19:14.694Z,11.83
2018-06-05T18:21:42.896Z,11.33
2018-06-05T18:24:11.368Z,14.23
2018-06-05T18:26:39.333Z,14.97
2018-06-05T18:29:07.575Z,15.97
2018-06-05T18:31:35.852Z,13.63
2018-06-05T18:34:03.960Z,14.33
2018-06-05T18:36:31.895Z,13.43
2018-06-05T18:39:00.288Z,13.53
2018-06-05T18:41:28.519Z,14.90
2018-06-05T18:43:56.836Z,15.90
2018-06-05T18:46:25.029Z,13.13
2018-06-05T18:48:53.390Z,13.33
2018-06-05T18:51:21.631Z,13.90
2018-06-05T18:53:51.009Z,12.70
2018-06-05T18:56:19.237Z,13.50
2018-06-05T18:58:47.468Z,14.63
2018-06-05T19:01:15.655Z,12.30
2018-06-05T19:03:43.813Z,13.40
2018-06-05T19:06:11.868Z,13.83
2018-06-05T19:08:40.232Z,12.73
2018-06-05T19:11:08.366Z,14.67
2018-06-05T19:13:36.654Z,13.07
2018-06-05T19:16:04.845Z,13.50
2018-06-05T19:18:33.125Z,14.70
2018-06-05T19:21:01.384Z,13.93
2018-06-05T19:23:29.613Z,17.57
2018-06-05T19:25:58.147Z,17.15
2018-06-05T19:28:27.612Z,13.80
2018-06-05T19:30:56.057Z,11.23
2018-06-05T19:33:24.218Z,12.67
2018-06-05T19:35:52.456Z,14.00
2018-06-05T19:38:20.761Z,12.73
2018-06-05T19:40:49.013Z,14.17
2018-06-05T19:43:17.667Z,14.70
2018-06-05T19:45:45.956Z,14.37
2018-06-05T19:48:17.887Z,17.17
2018-06-05T19:50:46.127Z,12.17
2018-06-05T19:53:18.378Z,16.00
2018-06-05T19:55:46.564Z,15.87
2018-06-05T19:58:15.718Z,15.60
2018-06-05T20:00:43.732Z,14.03
2018-06-05T20:03:13.707Z,13.90
2018-06-05T20:05:41.808Z,14.70
2018-06-05T20:08:14.314Z,14.77
2018-06-05T20:10:42.740Z,12.77
2018-06-05T20:13:11.079Z,15.37
2018-06-05T20:15:39.572Z,15.37
2018-06-05T20:18:08.130Z,14.30
2018-06-05T20:20:36.340Z,16.83
2018-06-05T20:23:05.363Z,15.87
2018-06-05T20:25:33.512Z,16.33
2018-06-05T20:28:01.774Z,15.90
2018-06-05T20:30:30.290Z,17.10
2018-06-05T20:32:58.714Z,15.97
2018-06-05T20:35:27.263Z,15.23
2018-06-05T20:37:55.583Z,16.23
2018-06-05T20:40:24.005Z,18.17
2018-06-05T20:42:52.529Z,16.70
2018-06-05T20:45:20.743Z,15.83
2018-06-05T20:47:49.075Z,16.10
2018-06-05T20:50:17.520Z,17.00
2018-06-05T20:52:45.771Z,18.47
2018-06-05T20:55:13.768Z,17.87
2018-06-05T20:57:43.117Z,18.90
2018-06-05T21:00:11.183Z,17.23
2018-06-05T21:02:39.137Z,16.83
2018-06-05T21:05:07.216Z,17.50
2018-06-05T21:07:35.228Z,17.17
2018-06-05T21:10:03.302Z,18.37
2018-06-05T21:12:31.308Z,17.60
2018-06-05T21:14:59.207Z,17.87
2018-06-05T21:17:27.262Z,17.97
2018-06-05T21:19:55.248Z,19.37
2018-06-05T21:22:23.371Z,17.67
2018-06-05T21:24:51.410Z,18.87
2018-06-05T21:27:19.461Z,18.27
2018-06-05T21:29:47.449Z,19.73
2018-06-05T21:32:15.520Z,20.53
2018-06-05T21:34:43.485Z,24.57
2018-06-05T21:37:11.691Z,18.73
2018-06-05T21:39:39.582Z,21.37
2018-06-05T21:42:07.780Z,19.93
2018-06-05T21:44:36.387Z,18.80
2018-06-05T21:47:05.495Z,18.43
2018-06-05T21:49:33.397Z,21.63
2018-06-05T21:52:06.959Z,19.27
2018-06-05T21:54:34.953Z,18.37
2018-06-05T21:57:05.076Z,19.63
2018-06-05T21:59:33.083Z,18.83
2018-06-05T22:02:01.294Z,20.60
2018-06-05T22:04:29.346Z,18.70
2018-06-05T22:06:57.876Z,21.23
2018-06-05T22:09:25.795Z,20.87
2018-06-05T22:11:53.801Z,21.10
2018-06-05T22:14:21.741Z,19.00
2018-06-05T22:16:49.750Z,19.43
2018-06-05T22:19:17.672Z,21.07
2018-06-05T22:21:45.686Z,20.17
2018-06-05T22:24:13.559Z,17.70
2018-06-05T22:26:41.558Z,19.57
2018-06-05T22:29:09.496Z,19.77
2018-06-05T22:31:37.455Z,21.07
2018-06-05T22:34:05.457Z,21.03
2018-06-05T22:36:33.384Z,19.13
2018-06-05T22:39:01.294Z,19.17
2018-06-05T22:41:29.308Z,20.33
2018-06-05T22:43:57.193Z,22.27
2018-06-05T22:46:25.149Z,20.43
2018-06-05T22:48:53.098Z,21.13
2018-06-05T22:51:21.158Z,20.63
2018-06-05T22:53:49.034Z,20.73
2018-06-05T22:56:17.071Z,19.77
2018-06-05T22:58:44.963Z,20.80
2018-06-05T23:01:12.980Z,20.23
2018-06-05T23:03:40.883Z,20.90
2018-06-05T23:06:08.827Z,19.50
2018-06-05T23:08:36.721Z,19.27
2018-06-05T23:11:04.691Z,18.50
2018-06-05T23:13:32.597Z,19.93
2018-06-05T23:16:00.594Z,20.00
2018-06-05T23:18:28.494Z,19.37
2018-06-05T23:20:56.451Z,19.23
2018-06-05T23:23:24.342Z,20.00
2018-06-05T23:25:52.386Z,22.23
2018-06-05T23:28:20.320Z,19.70
2018-06-05T23:30:48.257Z,22.23
2018-06-05T23:33:16.185Z,21.17
2018-06-05T23:35:44.119Z,22.00
2018-06-05T23:38:12.068Z,20.17
2018-06-05T23:40:40.039Z,21.43
2018-06-05T23:43:07.925Z,21.93
2018-06-05T23:45:35.913Z,22.77
2018-06-05T23:48:03.832Z,23.30
2018-06-05T23:50:31.858Z,24.83
2018-06-05T23:52:59.766Z,23.50
2018-06-05T23:55:27.791Z,23.13
2018-06-05T23:57:55.725Z,22.23
